Current Weather

Heathrow

Heathrow, United Kingdom (EGLL)

Report from: Friday, August 19, 2022 4:50 AM BST
Current time: Friday, August 19, 2022 5:38 AM BST

Nearby weather
Weather history
Weather forecast

Temperature19.0°C (66.2°F)
Dew point18.0°C (64.4°F)
Winds 7 kts (3.6 m/s, 8.1 mph) Southwest (220°)
Visibility6.2 mi. (10 km)
Clouds Scattered clouds 800 ft. (244 m)
Ceiling: Broken clouds 1,500 ft. (457 m)
Broken clouds 2,500 ft. (762 m)
Altimeter29.91 in.Hg (1013 mB)
Relative humidity94 %
Density altitude759 ft. (231 m)
Remarks Fully automated report
Flight conditions Marginal Visual Meteorological Conditions
Raw dataEGLL 190350Z AUTO 22007KT 9999 SCT008 BKN015 BKN025 19/18 Q1013
An unhandled exception has occurred. See browser dev tools for details. Reload 🗙